Time;durP1;ratioP1;P1;durP2;ratioP2;P2;SDS_P1;SDS_P2;PMS_P1;PMS_P2;Temp;Humidity;BMP_temperature;BMP_pressure;BME280_temperature;BME280_humidity;BME280_pressure;Samples;Min_cycle;Max_cycle;Signal;HPM_P1;HPM_P2
2022/08/21 00:00:55;;;;;;;13.68;3.80;;;;;;;;;;5113277;27;20088;-58
2022/08/21 00:03:21;;;;;;;21.35;3.72;;;;;;;;;;5125164;27;20031;-58
2022/08/21 00:05:49;;;;;;;11.38;3.92;;;;;;;;;;5115254;27;20046;-56
2022/08/21 00:08:15;;;;;;;12.25;3.88;;;;;;;;;;5113210;27;20090;-58
2022/08/21 00:10:42;;;;;;;13.63;3.83;;;;;;;;;;5143540;27;20046;-60
2022/08/21 00:13:08;;;;;;;17.27;4.50;;;;;;;;;;5126217;27;20055;-59
2022/08/21 00:15:36;;;;;;;16.70;4.05;;;;;;;;;;5126023;27;20137;-61
2022/08/21 00:18:03;;;;;;;9.93;3.45;;;;;;;;;;5113894;27;20039;-53
2022/08/21 00:20:30;;;;;;;13.48;3.42;;;;;;;;;;5119202;27;20127;-56
2022/08/21 00:22:56;;;;;;;18.65;3.45;;;;;;;;;;5121793;27;20050;-62
2022/08/21 00:25:22;;;;;;;13.27;3.70;;;;;;;;;;5124562;27;20051;-55
2022/08/21 00:27:49;;;;;;;12.45;4.28;;;;;;;;;;5128328;27;20043;-58
2022/08/21 00:30:17;;;;;;;14.15;4.22;;;;;;;;;;5126057;27;20096;-58
2022/08/21 00:32:43;;;;;;;10.93;3.72;;;;;;;;;;5125508;27;20069;-57
2022/08/21 00:35:11;;;;;;;9.68;3.55;;;;;;;;;;5126925;27;20035;-53
2022/08/21 00:37:38;;;;;;;9.80;3.38;;;;;;;;;;5099838;28;20497;-54
2022/08/21 00:40:05;;;;;;;14.57;3.47;;;;;;;;;;5123390;27;20309;-66
2022/08/21 00:42:32;;;;;;;12.00;3.67;;;;;;;;;;5125530;27;20134;-67
2022/08/21 00:44:58;;;;;;;14.18;3.88;;;;;;;;;;5127077;27;20505;-58
2022/08/21 00:47:25;;;;;;;11.82;3.55;;;;;;;;;;5115084;27;20051;-60
2022/08/21 00:49:51;;;;;;;8.73;3.42;;;;;;;;;;5123645;27;20054;-54
2022/08/21 00:52:22;;;;;;;17.30;4.82;;;;;;;;;;5123505;27;20047;-56
2022/08/21 00:54:51;;;;;;;11.25;3.72;;;;;;;;;;5126423;27;20043;-62
2022/08/21 00:57:21;;;;;;;12.35;4.53;;;;;;;;;;5125983;27;20035;-53
2022/08/21 00:59:49;;;;;;;15.38;4.38;;;;;;;;;;5124361;27;20108;-57
2022/08/21 01:02:16;;;;;;;12.02;4.38;;;;;;;;;;5118011;27;20093;-58
2022/08/21 01:04:43;;;;;;;16.63;4.32;;;;;;;;;;5126161;27;20039;-58
2022/08/21 01:07:09;;;;;;;13.60;4.22;;;;;;;;;;5127610;27;20047;-66
2022/08/21 01:09:36;;;;;;;12.95;4.30;;;;;;;;;;5125621;27;20043;-52
2022/08/21 01:12:02;;;;;;;16.63;5.30;;;;;;;;;;5115853;27;20113;-61
2022/08/21 01:14:30;;;;;;;10.57;4.28;;;;;;;;;;5125148;27;20074;-53
2022/08/21 01:16:56;;;;;;;9.60;4.97;;;;;;;;;;5125477;27;20586;-59
2022/08/21 01:19:23;;;;;;;16.73;5.13;;;;;;;;;;5126830;27;20477;-59
2022/08/21 01:21:49;;;;;;;10.98;4.75;;;;;;;;;;5116104;28;20058;-55
2022/08/21 01:24:15;;;;;;;15.75;4.88;;;;;;;;;;5126428;27;20110;-53
2022/08/21 01:26:42;;;;;;;13.38;4.63;;;;;;;;;;5125897;28;20550;-59
2022/08/21 01:29:27;;;;;;;11.95;4.65;;;;;;;;;;5124728;28;20402;-52
2022/08/21 01:31:53;;;;;;;15.60;4.60;;;;;;;;;;5107670;28;20043;-65
2022/08/21 01:34:19;;;;;;;18.02;5.30;;;;;;;;;;5119177;28;20054;-50
2022/08/21 01:36:46;;;;;;;15.13;4.82;;;;;;;;;;5126024;28;20035;-65
2022/08/21 01:39:12;;;;;;;10.38;4.28;;;;;;;;;;5119298;28;20039;-58
2022/08/21 01:41:38;;;;;;;12.68;3.42;;;;;;;;;;5109039;28;20384;-53
2022/08/21 01:44:05;;;;;;;17.95;4.07;;;;;;;;;;5126675;28;20039;-53
2022/08/21 01:46:32;;;;;;;12.80;3.97;;;;;;;;;;5113132;28;20071;-58
2022/08/21 01:48:58;;;;;;;8.63;3.53;;;;;;;;;;5119873;27;20135;-50
2022/08/21 01:51:25;;;;;;;13.00;4.43;;;;;;;;;;5120032;28;20050;-55
2022/08/21 01:53:51;;;;;;;10.55;4.35;;;;;;;;;;5126983;28;20500;-57
2022/08/21 01:56:18;;;;;;;13.20;3.67;;;;;;;;;;5126292;28;20046;-63
2022/08/21 01:58:46;;;;;;;5.30;3.05;;;;;;;;;;5124307;28;20126;-59
2022/08/21 02:01:12;;;;;;;10.65;3.67;;;;;;;;;;5124918;28;20125;-55
2022/08/21 02:03:39;;;;;;;12.02;3.33;;;;;;;;;;5123365;28;20046;-67
2022/08/21 02:06:06;;;;;;;10.57;3.63;;;;;;;;;;5127092;28;20027;-53
2022/08/21 02:08:33;;;;;;;12.98;3.60;;;;;;;;;;5126156;28;20485;-58
2022/08/21 02:11:00;;;;;;;10.63;2.88;;;;;;;;;;5124738;28;20350;-51
2022/08/21 02:13:26;;;;;;;12.85;3.40;;;;;;;;;;5125851;28;20065;-59
2022/08/21 02:15:52;;;;;;;10.77;3.22;;;;;;;;;;5112543;28;20397;-63
2022/08/21 02:18:18;;;;;;;16.13;3.55;;;;;;;;;;5119359;28;20097;-58
2022/08/21 02:20:46;;;;;;;16.00;3.47;;;;;;;;;;5122316;28;20313;-55
2022/08/21 02:23:13;;;;;;;8.52;3.60;;;;;;;;;;5122233;28;20466;-49
2022/08/21 02:25:39;;;;;;;7.97;3.10;;;;;;;;;;5120520;28;20039;-62
2022/08/21 02:28:08;;;;;;;6.80;3.45;;;;;;;;;;5123495;28;20047;-50
2022/08/21 02:30:37;;;;;;;10.65;4.35;;;;;;;;;;5123578;27;20109;-60
2022/08/21 02:33:04;;;;;;;8.60;3.17;;;;;;;;;;5125241;28;20065;-59
2022/08/21 02:35:30;;;;;;;9.85;3.38;;;;;;;;;;5120833;27;20039;-51
2022/08/21 02:37:58;;;;;;;12.48;4.03;;;;;;;;;;5126593;27;20061;-60
2022/08/21 02:40:26;;;;;;;7.25;3.20;;;;;;;;;;5110362;27;20048;-55
2022/08/21 02:42:53;;;;;;;9.65;3.10;;;;;;;;;;5109192;28;20489;-54
2022/08/21 02:45:19;;;;;;;10.82;3.30;;;;;;;;;;5143107;27;20043;-53
2022/08/21 02:47:49;;;;;;;9.20;3.00;;;;;;;;;;5123989;27;20126;-66
2022/08/21 02:50:18;;;;;;;11.93;3.00;;;;;;;;;;5109976;28;20083;-57
2022/08/21 02:52:45;;;;;;;8.13;3.25;;;;;;;;;;5109429;27;20105;-55
2022/08/21 02:55:11;;;;;;;7.10;2.60;;;;;;;;;;5108626;28;20040;-55
2022/08/21 02:57:37;;;;;;;10.85;2.88;;;;;;;;;;5108552;28;20055;-64
2022/08/21 03:00:04;;;;;;;14.45;3.38;;;;;;;;;;5107775;28;20043;-54
2022/08/21 03:02:31;;;;;;;15.52;3.50;;;;;;;;;;5117511;27;20039;-57
2022/08/21 03:04:57;;;;;;;11.75;2.92;;;;;;;;;;5108365;28;20090;-56
2022/08/21 03:07:24;;;;;;;6.05;2.90;;;;;;;;;;5125475;27;20054;-52
2022/08/21 03:09:50;;;;;;;13.38;2.90;;;;;;;;;;5112298;27;20588;-54
2022/08/21 03:12:16;;;;;;;10.98;2.85;;;;;;;;;;5124092;27;20532;-55
2022/08/21 03:14:42;;;;;;;7.38;3.08;;;;;;;;;;5129080;27;20061;-58
2022/08/21 03:17:08;;;;;;;11.10;2.65;;;;;;;;;;5129879;27;20504;-59
2022/08/21 03:19:34;;;;;;;13.43;3.38;;;;;;;;;;5124421;27;20048;-63
2022/08/21 03:22:00;;;;;;;10.80;3.15;;;;;;;;;;5118927;27;20074;-58
2022/08/21 03:24:26;;;;;;;9.43;2.78;;;;;;;;;;5122010;27;20054;-50
2022/08/21 03:26:53;;;;;;;10.88;3.03;;;;;;;;;;5126060;27;20548;-59
2022/08/21 03:29:19;;;;;;;8.45;2.50;;;;;;;;;;5128108;27;20126;-58
2022/08/21 03:31:45;;;;;;;13.35;3.08;;;;;;;;;;5121761;27;20076;-55
2022/08/21 03:34:11;;;;;;;14.48;3.03;;;;;;;;;;5119472;27;20362;-51
2022/08/21 03:36:37;;;;;;;7.55;3.13;;;;;;;;;;5127033;27;20039;-54
2022/08/21 03:39:03;;;;;;;9.93;3.35;;;;;;;;;;5129365;27;20045;-55
2022/08/21 03:41:29;;;;;;;8.70;3.05;;;;;;;;;;5097229;27;20477;-64
2022/08/21 03:43:55;;;;;;;9.93;2.95;;;;;;;;;;5120279;27;20047;-59
2022/08/21 03:46:21;;;;;;;9.93;3.03;;;;;;;;;;5107626;28;20502;-63
2022/08/21 03:48:49;;;;;;;12.60;3.30;;;;;;;;;;5126352;27;20092;-54
2022/08/21 03:51:15;;;;;;;7.28;2.80;;;;;;;;;;5129629;27;20043;-53
2022/08/21 03:53:47;;;;;;;10.65;3.45;;;;;;;;;;5126463;27;20058;-53
2022/08/21 03:56:13;;;;;;;11.73;3.95;;;;;;;;;;5129146;27;20050;-65
2022/08/21 03:58:39;;;;;;;10.75;3.03;;;;;;;;;;5128999;27;20035;-53
2022/08/21 04:01:06;;;;;;;8.38;3.10;;;;;;;;;;5125769;27;20043;-59
2022/08/21 04:03:34;;;;;;;6.15;3.03;;;;;;;;;;5124507;27;20051;-53
2022/08/21 04:06:00;;;;;;;12.25;3.17;;;;;;;;;;5126144;27;20047;-52
2022/08/21 04:08:26;;;;;;;8.57;3.22;;;;;;;;;;5129251;27;20047;-63
2022/08/21 04:10:54;;;;;;;10.00;3.80;;;;;;;;;;5111518;27;20050;-58
2022/08/21 04:13:20;;;;;;;18.00;3.00;;;;;;;;;;5127350;27;20108;-56
2022/08/21 04:15:46;;;;;;;6.47;3.08;;;;;;;;;;5127128;27;20108;-64
2022/08/21 04:18:13;;;;;;;13.55;3.92;;;;;;;;;;5117240;27;20039;-54
2022/08/21 04:20:40;;;;;;;11.15;3.28;;;;;;;;;;5129048;27;20043;-55
2022/08/21 04:23:06;;;;;;;13.27;3.42;;;;;;;;;;5127045;27;20079;-62
2022/08/21 04:25:32;;;;;;;14.68;4.07;;;;;;;;;;5127246;27;20057;-51
2022/08/21 04:27:58;;;;;;;15.20;3.58;;;;;;;;;;5127377;27;20393;-50
2022/08/21 04:30:25;;;;;;;11.63;3.58;;;;;;;;;;5128999;27;20054;-63
2022/08/21 04:32:51;;;;;;;9.10;3.40;;;;;;;;;;5127170;27;20051;-54
2022/08/21 04:35:19;;;;;;;9.35;3.58;;;;;;;;;;5128129;27;20092;-62
2022/08/21 04:37:45;;;;;;;9.57;3.60;;;;;;;;;;5126947;27;20070;-62
2022/08/21 04:40:13;;;;;;;16.10;3.55;;;;;;;;;;5126998;27;20091;-52
2022/08/21 04:42:44;;;;;;;8.95;3.65;;;;;;;;;;5127327;27;20057;-52
2022/08/21 04:45:16;;;;;;;14.40;3.90;;;;;;;;;;5122208;27;20040;-61
2022/08/21 04:47:42;;;;;;;14.73;3.88;;;;;;;;;;5107775;28;20124;-57
2022/08/21 04:50:08;;;;;;;10.38;3.50;;;;;;;;;;5122045;27;20398;-53
2022/08/21 04:52:34;;;;;;;12.07;3.35;;;;;;;;;;5127877;27;20055;-63
2022/08/21 04:55:01;;;;;;;13.00;3.90;;;;;;;;;;5127906;27;20119;-53
2022/08/21 04:57:27;;;;;;;11.52;3.75;;;;;;;;;;5127292;27;20046;-59
2022/08/21 04:59:53;;;;;;;8.90;3.55;;;;;;;;;;5126589;27;20062;-61
2022/08/21 05:02:21;;;;;;;10.18;3.60;;;;;;;;;;5120477;27;20073;-53
2022/08/21 05:04:51;;;;;;;8.23;3.25;;;;;;;;;;5128341;27;20082;-60
2022/08/21 05:07:22;;;;;;;16.70;4.30;;;;;;;;;;5126596;27;20042;-62
2022/08/21 05:09:49;;;;;;;15.90;3.83;;;;;;;;;;5120772;27;20043;-60
2022/08/21 05:12:16;;;;;;;10.00;3.50;;;;;;;;;;5119914;27;20055;-53
2022/08/21 05:14:48;;;;;;;10.15;3.35;;;;;;;;;;5125726;27;20134;-53
2022/08/21 05:17:15;;;;;;;16.77;3.80;;;;;;;;;;5118981;27;20122;-62
2022/08/21 05:19:41;;;;;;;11.00;3.38;;;;;;;;;;5113821;27;20046;-57
2022/08/21 05:22:07;;;;;;;15.00;3.97;;;;;;;;;;5126296;27;20497;-53
2022/08/21 05:24:33;;;;;;;13.73;3.70;;;;;;;;;;5125406;28;20060;-55
2022/08/21 05:26:59;;;;;;;8.43;3.42;;;;;;;;;;5127587;28;20043;-67
2022/08/21 05:29:26;;;;;;;10.10;3.10;;;;;;;;;;5116128;28;20043;-59
2022/08/21 05:31:52;;;;;;;8.77;3.17;;;;;;;;;;5126728;28;20032;-52
2022/08/21 05:34:20;;;;;;;10.52;2.83;;;;;;;;;;5125977;28;20082;-57
2022/08/21 05:36:46;;;;;;;10.35;2.70;;;;;;;;;;5126195;28;20054;-62
2022/08/21 05:39:12;;;;;;;11.10;3.13;;;;;;;;;;5122632;28;20092;-57
2022/08/21 05:41:38;;;;;;;12.82;3.30;;;;;;;;;;5123502;28;20122;-54
2022/08/21 05:44:05;;;;;;;11.80;3.38;;;;;;;;;;5127488;28;20043;-61
2022/08/21 05:46:31;;;;;;;7.20;2.58;;;;;;;;;;5126959;28;20452;-52
2022/08/21 05:48:57;;;;;;;16.20;2.95;;;;;;;;;;5125722;28;20077;-58
2022/08/21 05:51:23;;;;;;;8.50;2.72;;;;;;;;;;5122266;28;20427;-54
2022/08/21 05:53:49;;;;;;;8.50;2.92;;;;;;;;;;5126329;28;20078;-53
2022/08/21 05:56:15;;;;;;;10.75;3.05;;;;;;;;;;5126302;28;20043;-57
2022/08/21 05:58:44;;;;;;;11.45;2.92;;;;;;;;;;5124415;28;20043;-61
2022/08/21 06:01:10;;;;;;;10.85;3.30;;;;;;;;;;5122334;28;20062;-57
2022/08/21 06:03:38;;;;;;;12.70;3.42;;;;;;;;;;5122356;28;20078;-56
2022/08/21 06:06:04;;;;;;;5.88;2.47;;;;;;;;;;5125440;28;20489;-57
2022/08/21 06:08:30;;;;;;;10.70;3.03;;;;;;;;;;5124544;28;20486;-56
2022/08/21 06:10:58;;;;;;;11.85;2.60;;;;;;;;;;5111660;28;20374;-54
2022/08/21 06:13:25;;;;;;;8.93;2.85;;;;;;;;;;5118991;27;20051;-54
2022/08/21 06:16:00;;;;;;;9.18;2.75;;;;;;;;;;5129976;27;20047;-61
2022/08/21 06:18:26;;;;;;;10.02;2.58;;;;;;;;;;5130811;27;20074;-60
2022/08/21 06:20:52;;;;;;;13.40;3.60;;;;;;;;;;5129156;27;20493;-66
2022/08/21 06:23:18;;;;;;;12.65;2.90;;;;;;;;;;5130800;27;20047;-55
2022/08/21 06:25:45;;;;;;;14.18;3.55;;;;;;;;;;5130749;27;20043;-55
2022/08/21 06:28:12;;;;;;;7.43;2.80;;;;;;;;;;5111136;27;20404;-57
2022/08/21 06:30:38;;;;;;;11.18;3.30;;;;;;;;;;5131175;27;20043;-55
2022/08/21 06:33:06;;;;;;;16.52;3.72;;;;;;;;;;5126929;27;20051;-62
2022/08/21 06:35:32;;;;;;;14.93;3.17;;;;;;;;;;5130868;27;20047;-49
2022/08/21 06:37:58;;;;;;;14.00;3.05;;;;;;;;;;5129715;27;20055;-60
2022/08/21 06:40:24;;;;;;;7.63;3.00;;;;;;;;;;5112278;27;20050;-59
2022/08/21 06:42:50;;;;;;;10.98;3.28;;;;;;;;;;5128029;27;20039;-57
2022/08/21 06:45:17;;;;;;;11.80;3.75;;;;;;;;;;5124031;27;20040;-55
2022/08/21 06:47:43;;;;;;;12.05;2.90;;;;;;;;;;5128402;27;20049;-59
2022/08/21 06:50:09;;;;;;;9.60;2.85;;;;;;;;;;5124998;27;20055;-60
2022/08/21 06:52:36;;;;;;;14.10;3.33;;;;;;;;;;5128329;27;20511;-54
2022/08/21 06:55:02;;;;;;;15.02;3.53;;;;;;;;;;5111694;27;20126;-61
2022/08/21 06:57:28;;;;;;;19.10;3.70;;;;;;;;;;5116769;27;20420;-55
2022/08/21 06:59:54;;;;;;;10.73;3.38;;;;;;;;;;5112034;27;20044;-58
2022/08/21 07:02:20;;;;;;;15.80;4.90;;;;;;;;;;5117325;27;20052;-58
2022/08/21 07:04:46;;;;;;;11.88;3.28;;;;;;;;;;5109805;28;20116;-60
2022/08/21 07:07:12;;;;;;;14.45;3.17;;;;;;;;;;5120206;27;20039;-57
2022/08/21 07:09:41;;;;;;;14.48;3.97;;;;;;;;;;5142511;27;20051;-63
2022/08/21 07:12:07;;;;;;;13.38;3.47;;;;;;;;;;5140401;27;20090;-60
2022/08/21 07:14:33;;;;;;;10.77;3.20;;;;;;;;;;5110293;27;20051;-64
2022/08/21 07:17:00;;;;;;;12.40;3.15;;;;;;;;;;5108379;28;20146;-53
2022/08/21 07:19:26;;;;;;;10.93;3.30;;;;;;;;;;5142109;27;20104;-55
2022/08/21 07:21:56;;;;;;;7.00;2.85;;;;;;;;;;5124404;27;20043;-54
2022/08/21 07:24:22;;;;;;;12.02;3.50;;;;;;;;;;5106713;28;20054;-65
2022/08/21 07:26:48;;;;;;;12.15;3.45;;;;;;;;;;5109238;28;20040;-57
2022/08/21 07:29:14;;;;;;;16.10;3.40;;;;;;;;;;5107626;28;20571;-66
2022/08/21 07:31:40;;;;;;;15.77;3.40;;;;;;;;;;5131081;27;20039;-56
2022/08/21 07:34:08;;;;;;;8.00;2.97;;;;;;;;;;5108393;28;20047;-57
2022/08/21 07:36:34;;;;;;;12.68;3.50;;;;;;;;;;5141143;27;20464;-66
2022/08/21 07:39:00;;;;;;;11.48;2.67;;;;;;;;;;5107562;28;20092;-56
2022/08/21 07:41:28;;;;;;;12.90;2.85;;;;;;;;;;5108628;27;20066;-61
2022/08/21 07:43:55;;;;;;;14.60;2.83;;;;;;;;;;5122708;27;20058;-57
2022/08/21 07:46:21;;;;;;;11.32;2.55;;;;;;;;;;5124463;27;20064;-60
2022/08/21 07:48:47;;;;;;;13.55;3.28;;;;;;;;;;5123464;27;20117;-55
2022/08/21 07:51:14;;;;;;;6.82;2.33;;;;;;;;;;5121725;27;20075;-67
2022/08/21 07:53:40;;;;;;;11.25;2.15;;;;;;;;;;5108638;28;20069;-52
2022/08/21 07:56:08;;;;;;;9.95;2.67;;;;;;;;;;5106444;28;20050;-58
2022/08/21 07:58:34;;;;;;;12.10;2.80;;;;;;;;;;5107733;28;20215;-62
2022/08/21 08:01:00;;;;;;;9.85;2.10;;;;;;;;;;5111153;27;20067;-55
2022/08/21 08:03:27;;;;;;;13.93;2.75;;;;;;;;;;5105344;27;20477;-60
2022/08/21 08:05:53;;;;;;;10.00;2.72;;;;;;;;;;5107115;28;21020;-53
2022/08/21 08:08:19;;;;;;;14.52;2.83;;;;;;;;;;5099054;28;20650;-60
2022/08/21 08:10:46;;;;;;;11.32;2.92;;;;;;;;;;5120412;27;20374;-67
2022/08/21 08:13:12;;;;;;;12.95;2.67;;;;;;;;;;5115832;27;20530;-55
2022/08/21 08:15:38;;;;;;;9.30;2.53;;;;;;;;;;5123718;27;20039;-63
2022/08/21 08:18:04;;;;;;;11.80;2.55;;;;;;;;;;5121350;27;20454;-58
2022/08/21 08:20:30;;;;;;;15.85;3.03;;;;;;;;;;5124935;27;20039;-61
2022/08/21 08:22:57;;;;;;;6.85;2.20;;;;;;;;;;5114572;27;20127;-60
2022/08/21 08:25:23;;;;;;;7.22;2.88;;;;;;;;;;5122992;27;20035;-65
2022/08/21 08:27:49;;;;;;;10.48;2.88;;;;;;;;;;5125301;27;20125;-65
2022/08/21 08:30:17;;;;;;;8.93;2.60;;;;;;;;;;5117191;27;20509;-62
2022/08/21 08:32:44;;;;;;;10.65;2.25;;;;;;;;;;5107148;27;20096;-63
2022/08/21 08:35:11;;;;;;;14.48;3.25;;;;;;;;;;5104229;28;20521;-61
2022/08/21 08:37:39;;;;;;;20.63;3.35;;;;;;;;;;5103323;28;20603;-63
2022/08/21 08:40:06;;;;;;;8.45;2.70;;;;;;;;;;5091209;28;20089;-65
2022/08/21 08:42:34;;;;;;;8.38;1.95;;;;;;;;;;5106395;27;20051;-54
2022/08/21 08:45:08;;;;;;;10.88;2.67;;;;;;;;;;5120901;27;20058;-60
2022/08/21 08:47:40;;;;;;;11.32;2.22;;;;;;;;;;5106043;28;20101;-62
2022/08/21 08:50:10;;;;;;;14.45;2.85;;;;;;;;;;5107251;28;20056;-61
2022/08/21 08:52:42;;;;;;;14.85;2.78;;;;;;;;;;5122557;27;20108;-58
2022/08/21 08:55:11;;;;;;;12.38;2.55;;;;;;;;;;5110063;27;20048;-59
2022/08/21 08:57:38;;;;;;;10.45;2.35;;;;;;;;;;5119004;27;20122;-57
2022/08/21 09:00:08;;;;;;;11.90;3.13;;;;;;;;;;5106204;28;20051;-57
2022/08/21 09:02:34;;;;;;;8.70;2.67;;;;;;;;;;5132679;27;20062;-59
2022/08/21 09:05:00;;;;;;;10.65;2.45;;;;;;;;;;5120518;27;20040;-60
2022/08/21 09:07:39;;;;;;;10.98;2.00;;;;;;;;;;5103438;28;20039;-53
2022/08/21 09:10:05;;;;;;;12.65;2.17;;;;;;;;;;5105565;28;20489;-63
2022/08/21 09:12:39;;;;;;;9.32;2.15;;;;;;;;;;5118720;27;20084;-57
2022/08/21 09:15:08;;;;;;;10.27;1.73;;;;;;;;;;5128166;27;20390;-61
2022/08/21 09:17:39;;;;;;;11.27;1.95;;;;;;;;;;5124434;27;20063;-61
2022/08/21 09:20:26;;;;;;;12.90;2.50;;;;;;;;;;5106075;27;20074;-59
2022/08/21 09:23:10;;;;;;;6.68;1.40;;;;;;;;;;5118412;27;20126;-54
2022/08/21 09:25:43;;;;;;;8.30;1.85;;;;;;;;;;5124121;28;20043;-54
2022/08/21 09:28:12;;;;;;;6.85;1.80;;;;;;;;;;5123777;28;20082;-67
2022/08/21 09:30:38;;;;;;;;;;;;;;;;;;5124091;28;20043;-62
2022/08/21 09:33:04;;;;;;;12.85;2.63;;;;;;;;;;5153194;27;19923;-59
2022/08/21 09:35:32;;;;;;;13.73;2.47;;;;;;;;;;5124102;28;20035;-60
2022/08/21 09:38:01;;;;;;;9.13;1.95;;;;;;;;;;5124639;28;20485;-58
2022/08/21 09:40:30;;;;;;;11.57;2.13;;;;;;;;;;5123798;28;20051;-63
2022/08/21 09:42:57;;;;;;;12.68;1.77;;;;;;;;;;5122677;28;20469;-62
2022/08/21 09:45:23;;;;;;;10.18;2.05;;;;;;;;;;5124102;27;20145;-60
2022/08/21 09:47:49;;;;;;;9.25;1.80;;;;;;;;;;5124114;27;20058;-60
2022/08/21 09:50:21;;;;;;;6.93;1.88;;;;;;;;;;5129405;27;20039;-62
2022/08/21 09:52:53;;;;;;;9.85;1.77;;;;;;;;;;5128193;27;20175;-55
2022/08/21 09:58:12;;;;;;;8.40;2.10;;;;;;;;;;5130271;27;20477;-63
2022/08/21 10:00:39;;;;;;;6.97;1.83;;;;;;;;;;5129647;27;20097;-56
2022/08/21 10:03:13;;;;;;;10.35;2.22;;;;;;;;;;5123369;27;20122;-58
2022/08/21 10:05:40;;;;;;;9.65;1.98;;;;;;;;;;5120466;27;20074;-57
2022/08/21 10:08:16;;;;;;;10.50;2.53;;;;;;;;;;5128452;27;20051;-58
2022/08/21 10:10:43;;;;;;;7.45;2.30;;;;;;;;;;5126396;27;20039;-58
2022/08/21 10:13:09;;;;;;;10.65;2.45;;;;;;;;;;5125074;27;20138;-58
2022/08/21 10:15:53;;;;;;;10.93;2.10;;;;;;;;;;5124503;27;20040;-62
2022/08/21 10:18:25;;;;;;;11.25;2.08;;;;;;;;;;5127615;27;20122;-58
2022/08/21 10:21:07;;;;;;;6.05;1.80;;;;;;;;;;5111047;27;20079;-63
2022/08/21 10:23:36;;;;;;;5.93;1.90;;;;;;;;;;5109069;27;20050;-62
2022/08/21 10:26:02;;;;;;;;;;;;;;;;;;5127983;27;20481;-58
2022/08/21 10:28:51;;;;;;;7.90;1.70;;;;;;;;;;5125951;27;20002;-59
2022/08/21 10:31:17;;;;;;;;;;;;;;;;;;5112885;27;20059;-62
2022/08/21 10:33:51;;;;;;;11.75;1.60;;;;;;;;;;5125063;27;20378;-67
2022/08/21 10:36:20;;;;;;;9.98;2.38;;;;;;;;;;5121770;27;20497;-65
2022/08/21 10:38:46;;;;;;;7.27;1.80;;;;;;;;;;5125187;27;20039;-61
2022/08/21 10:41:12;;;;;;;7.50;2.83;;;;;;;;;;5109259;27;20047;-59
2022/08/21 10:43:52;;;;;;;13.23;2.70;;;;;;;;;;5123627;27;20054;-61
2022/08/21 10:46:21;;;;;;;9.15;1.70;;;;;;;;;;5123794;27;20088;-63
2022/08/21 10:48:57;;;;;;;12.20;2.70;;;;;;;;;;5121716;27;20078;-65
2022/08/21 10:51:24;;;;;;;12.52;2.00;;;;;;;;;;5124973;27;20482;-60
2022/08/21 10:54:10;;;;;;;10.10;2.38;;;;;;;;;;5121742;27;20035;-67
2022/08/21 10:56:39;;;;;;;6.65;1.80;;;;;;;;;;5104031;28;20086;-60
2022/08/21 10:59:12;;;;;;;8.57;2.92;;;;;;;;;;5121134;27;20427;-65
2022/08/21 11:01:38;;;;;;;7.53;1.80;;;;;;;;;;5121186;27;20073;-61
2022/08/21 11:04:11;;;;;;;9.70;2.13;;;;;;;;;;5118431;27;20400;-57
2022/08/21 11:06:39;;;;;;;8.07;1.80;;;;;;;;;;5126150;27;20741;-65
2022/08/21 11:09:10;;;;;;;10.82;1.88;;;;;;;;;;5109281;27;20473;-61
2022/08/21 11:11:39;;;;;;;11.20;2.45;;;;;;;;;;5125392;27;20130;-62
2022/08/21 11:14:05;;;;;;;;;;;;;;;;;;5108095;27;20440;-63
2022/08/21 11:16:37;;;;;;;7.05;1.80;;;;;;;;;;5127197;27;19919;-63
2022/08/21 11:19:13;;;;;;;8.68;2.00;;;;;;;;;;5122375;27;20126;-55
2022/08/21 11:21:39;;;;;;;6.35;1.75;;;;;;;;;;5128156;27;20039;-64
2022/08/21 11:24:11;;;;;;;10.05;2.33;;;;;;;;;;5126270;27;20043;-61
2022/08/21 11:26:45;;;;;;;6.60;1.83;;;;;;;;;;5122807;27;20042;-57
2022/08/21 11:29:17;;;;;;;6.70;1.40;;;;;;;;;;5125087;27;20051;-57
2022/08/21 11:31:49;;;;;;;4.50;1.70;;;;;;;;;;5121534;27;20044;-56
2022/08/21 11:34:40;;;;;;;8.35;2.22;;;;;;;;;;5109443;27;20043;-61
2022/08/21 11:37:09;;;;;;;4.68;1.45;;;;;;;;;;5119190;27;20055;-62
2022/08/21 11:39:45;;;;;;;6.45;1.70;;;;;;;;;;5125192;27;20511;-61
2022/08/21 11:42:39;;;;;;;3.75;1.45;;;;;;;;;;5125984;27;20043;-57
2022/08/21 11:45:24;;;;;;;8.38;1.98;;;;;;;;;;5124118;27;20055;-54
2022/08/21 11:48:08;;;;;;;11.68;1.95;;;;;;;;;;5107382;27;20492;-60
2022/08/21 11:50:36;;;;;;;7.80;1.95;;;;;;;;;;5097813;27;20047;-57
2022/08/21 11:53:09;;;;;;;6.72;1.90;;;;;;;;;;5121597;27;20048;-59
2022/08/21 11:55:39;;;;;;;8.07;2.05;;;;;;;;;;5107832;28;20427;-65
2022/08/21 11:58:12;;;;;;;10.20;2.08;;;;;;;;;;5103044;28;20073;-56
2022/08/21 12:00:45;;;;;;;7.20;1.77;;;;;;;;;;5107119;27;20467;-57
2022/08/21 12:03:21;;;;;;;6.78;1.73;;;;;;;;;;5106778;28;20147;-51
2022/08/21 12:05:55;;;;;;;4.13;1.60;;;;;;;;;;5106385;28;20050;-54
2022/08/21 12:08:29;;;;;;;7.38;2.03;;;;;;;;;;5109042;28;20060;-66
2022/08/21 12:11:10;;;;;;;6.22;1.67;;;;;;;;;;5110875;27;20038;-58
2022/08/21 12:13:41;;;;;;;10.75;1.35;;;;;;;;;;5126701;27;20059;-58
2022/08/21 12:16:08;;;;;;;6.63;1.52;;;;;;;;;;5127787;27;20043;-55
2022/08/21 12:18:37;;;;;;;6.35;1.40;;;;;;;;;;5126439;27;20549;-55
2022/08/21 12:21:03;;;;;;;4.82;1.52;;;;;;;;;;5113481;27;20096;-63
2022/08/21 12:23:31;;;;;;;5.80;1.60;;;;;;;;;;5135096;27;20400;-60
2022/08/21 12:26:03;;;;;;;10.48;1.67;;;;;;;;;;5109957;27;20032;-61
2022/08/21 12:28:31;;;;;;;5.18;1.50;;;;;;;;;;5118938;27;20058;-63
2022/08/21 12:30:57;;;;;;;6.85;1.60;;;;;;;;;;5125566;27;20093;-66
2022/08/21 12:33:31;;;;;;;3.83;1.45;;;;;;;;;;5116199;27;20446;-59
2022/08/21 12:36:10;;;;;;;10.45;2.08;;;;;;;;;;5118736;27;20055;-66
2022/08/21 12:38:44;;;;;;;8.20;1.63;;;;;;;;;;5122151;27;20036;-56
2022/08/21 12:41:13;;;;;;;5.00;1.73;;;;;;;;;;5120523;27;20066;-59
2022/08/21 12:43:41;;;;;;;5.60;1.35;;;;;;;;;;5118897;27;20099;-53
2022/08/21 12:46:15;;;;;;;4.72;1.25;;;;;;;;;;5124873;27;20046;-62
2022/08/21 12:48:45;;;;;;;6.90;1.88;;;;;;;;;;5121772;27;20088;-67
2022/08/21 12:51:14;;;;;;;8.65;1.85;;;;;;;;;;5123078;27;20477;-59
2022/08/21 12:53:46;;;;;;;7.80;1.60;;;;;;;;;;5122348;27;20070;-53
2022/08/21 12:56:14;;;;;;;5.78;1.42;;;;;;;;;;5123676;27;20785;-56
2022/08/21 12:58:41;;;;;;;5.07;1.55;;;;;;;;;;5123952;27;20042;-67
2022/08/21 13:01:13;;;;;;;5.32;1.50;;;;;;;;;;5123012;27;20042;-59
2022/08/21 13:03:40;;;;;;;5.57;1.40;;;;;;;;;;5118419;27;20455;-56
2022/08/21 13:06:08;;;;;;;4.88;1.40;;;;;;;;;;5122675;27;20400;-67
2022/08/21 13:08:38;;;;;;;5.13;1.60;;;;;;;;;;5124188;27;20039;-67
2022/08/21 13:11:06;;;;;;;7.93;1.88;;;;;;;;;;5115551;27;20122;-61
2022/08/21 13:13:33;;;;;;;5.85;1.63;;;;;;;;;;5125661;27;20063;-59
2022/08/21 13:16:02;;;;;;;5.70;1.40;;;;;;;;;;5126466;27;20115;-55
2022/08/21 13:18:29;;;;;;;6.05;1.80;;;;;;;;;;5126310;27;20057;-61
2022/08/21 13:21:10;;;;;;;7.65;1.88;;;;;;;;;;5126622;27;20039;-66
2022/08/21 13:23:37;;;;;;;8.48;2.00;;;;;;;;;;5098090;27;20427;-67
2022/08/21 13:26:13;;;;;;;11.98;2.28;;;;;;;;;;5115885;27;20039;-58
2022/08/21 13:28:47;;;;;;;4.82;1.50;;;;;;;;;;5107851;28;20451;-62
2022/08/21 13:31:17;;;;;;;4.93;1.60;;;;;;;;;;5112963;28;20062;-58
2022/08/21 13:33:44;;;;;;;7.90;2.13;;;;;;;;;;5108180;28;20135;-59
2022/08/21 13:36:12;;;;;;;4.13;1.30;;;;;;;;;;5114304;28;20097;-64
2022/08/21 13:38:41;;;;;;;4.38;1.58;;;;;;;;;;5098723;28;20166;-66
2022/08/21 13:41:08;;;;;;;;;;;;;;;;;;5106725;28;20475;-55
2022/08/21 13:43:35;;;;;;;7.55;1.88;;;;;;;;;;5113846;28;19928;-63
2022/08/21 13:46:06;;;;;;;5.88;1.50;;;;;;;;;;5108627;28;20043;-57
2022/08/21 13:48:34;;;;;;;6.60;1.58;;;;;;;;;;5104628;28;20048;-62
2022/08/21 13:51:01;;;;;;;5.60;1.88;;;;;;;;;;5109487;28;20124;-57
2022/08/21 13:53:30;;;;;;;6.22;1.83;;;;;;;;;;5120697;28;20062;-57
2022/08/21 13:55:59;;;;;;;10.02;1.65;;;;;;;;;;5114508;27;20047;-55
2022/08/21 13:58:26;;;;;;;7.55;1.90;;;;;;;;;;5112441;28;20477;-60
2022/08/21 14:00:54;;;;;;;5.65;1.52;;;;;;;;;;5110443;28;20051;-55
2022/08/21 14:03:43;;;;;;;5.68;1.60;;;;;;;;;;5105985;28;20047;-61
2022/08/21 14:06:20;;;;;;;9.73;1.77;;;;;;;;;;5100854;28;20462;-64
2022/08/21 14:08:58;;;;;;;8.25;2.47;;;;;;;;;;5107846;28;20047;-61
2022/08/21 14:11:25;;;;;;;5.90;1.42;;;;;;;;;;5118341;28;20463;-55
2022/08/21 14:13:58;;;;;;;11.00;1.92;;;;;;;;;;5110439;28;20047;-56
2022/08/21 14:16:26;;;;;;;12.20;2.50;;;;;;;;;;5125876;27;20122;-57
2022/08/21 14:19:02;;;;;;;7.25;1.70;;;;;;;;;;5124126;28;20390;-54
2022/08/21 14:21:30;;;;;;;13.30;2.45;;;;;;;;;;5127508;28;20057;-66
2022/08/21 14:24:00;;;;;;;6.90;2.00;;;;;;;;;;5123540;27;20058;-62
2022/08/21 14:26:30;;;;;;;12.00;2.15;;;;;;;;;;5121705;28;20043;-62
2022/08/21 14:28:59;;;;;;;11.05;2.20;;;;;;;;;;5111219;28;20040;-61
2022/08/21 14:31:32;;;;;;;11.10;2.03;;;;;;;;;;5118643;27;20115;-57
2022/08/21 14:33:58;;;;;;;9.25;2.47;;;;;;;;;;5113841;27;20055;-59
2022/08/21 14:36:24;;;;;;;9.32;2.10;;;;;;;;;;5110695;27;20429;-61
2022/08/21 14:38:51;;;;;;;11.85;2.55;;;;;;;;;;5114526;27;20059;-59
2022/08/21 14:41:22;;;;;;;12.52;2.08;;;;;;;;;;5109170;27;20051;-64
2022/08/21 14:43:50;;;;;;;7.93;1.90;;;;;;;;;;5125888;27;20042;-59
2022/08/21 14:46:21;;;;;;;13.10;2.72;;;;;;;;;;5122856;27;20404;-54